Time;durP1;ratioP1;P1;durP2;ratioP2;P2;SDS_P1;SDS_P2;PMS_P1;PMS_P2;Temp;Humidity;BMP_temperature;BMP_pressure;BME280_temperature;BME280_humidity;BME280_pressure;Samples;Min_cycle;Max_cycle;Signal;HPM_P1;HPM_P2
2021/03/07 00:02:17;;;;;;;;;;;;;;;;;;4988213;28;835;-60
2021/03/07 00:04:42;;;;;;;;;;;;;;;;;;4989022;28;846;-61
2021/03/07 00:07:07;;;;;;;;;;;;;;;;;;4989322;28;1938;-61
2021/03/07 00:09:33;;;;;;;;;;;;;;;;;;4989799;28;816;-61
2021/03/07 00:11:58;;;;;;;;;;;;;;;;;;4988767;28;840;-61
2021/03/07 00:14:23;;;;;;;;;;;;;;;;;;4988864;28;808;-61
2021/03/07 00:16:49;;;;;;;;;;;;;;;;;;4988283;28;623;-61
2021/03/07 00:19:14;;;;;;;;;;;;;;;;;;4988655;28;831;-60
2021/03/07 00:21:39;;;;;;;;;;;;;;;;;;4987977;28;1411;-58
2021/03/07 00:24:05;;;;;;;;;;;;;;;;;;4989720;28;836;-61
2021/03/07 00:26:30;;;;;;;;;;;;;;;;;;4987699;28;1902;-61
2021/03/07 00:28:56;;;;;;;;;;;;;;;;;;4988154;28;906;-61
2021/03/07 00:31:21;;;;;;;;;;;;;;;;;;4988268;28;871;-61
2021/03/07 00:33:46;;;;;;;;;;;;;;;;;;4988764;28;819;-60
2021/03/07 00:36:12;;;;;;;;;;;;;;;;;;4988323;28;966;-60
2021/03/07 00:38:37;;;;;;;;;;;;;;;;;;4988750;28;812;-61
2021/03/07 00:41:03;;;;;;;;;;;;;;;;;;4989580;28;867;-60
2021/03/07 00:43:28;;;;;;;;;;;;;;;;;;4988422;28;911;-60
2021/03/07 00:45:54;;;;;;;;;;;;;;;;;;5018553;28;1905;-60
2021/03/07 00:48:19;;;;;;;;;;;;;;;;;;4988149;28;946;-60
2021/03/07 00:50:44;;;;;;;;;;;;;;;;;;4988675;28;899;-60
2021/03/07 00:53:10;;;;;;;;;;;;;;;;;;4997316;28;1080;-59
2021/03/07 00:55:35;;;;;;;;;;;;;;;;;;5029757;28;820;-60
2021/03/07 00:58:00;;;;;;;;;;;;;;;;;;5027359;28;750;-58
2021/03/07 01:00:28;;;;;;;;;;;;;;;;;;5027336;28;823;-59
2021/03/07 01:02:53;;;;;;;;;;;;;;;;;;5027365;28;827;-60
2021/03/07 01:05:18;;;;;;;;;;;;;;;;;;5027132;28;2001;-59
2021/03/07 01:07:44;;;;;;;;;;;;;;;;;;5027272;28;812;-58
2021/03/07 01:10:15;;;;;;;;;;;;;;;;;;5027158;28;867;-58
2021/03/07 01:12:41;;;;;;;;;;;;;;;;;;5026717;28;935;-59
2021/03/07 01:15:06;;;;;;;;;;;;;;;;;;5026354;28;855;-58
2021/03/07 01:17:32;;;;;;;;;;;;;;;;;;5010595;28;1383;-61
2021/03/07 01:19:57;;;;;;;;;;;;;;;;;;5007140;28;820;-60
2021/03/07 01:22:23;;;;;;;;;;;;;;;;;;5006928;28;859;-61
2021/03/07 01:24:48;;;;;;;;;;;;;;;;;;5008635;28;1142;-60
2021/03/07 01:27:13;;;;;;;;;;;;;;;;;;5005891;28;2003;-61
2021/03/07 01:29:39;;;;;;;;;;;;;;;;;;5007204;28;903;-61
2021/03/07 01:32:04;;;;;;;;;;;;;;;;;;5008117;28;957;-61
2021/03/07 01:34:30;;;;;;;;;;;;;;;;;;5007026;28;820;-61
2021/03/07 01:36:56;;;;;;;;;;;;;;;;;;5006972;28;879;-61
2021/03/07 01:39:21;;;;;;;;;;;;;;;;;;5007162;28;934;-62
2021/03/07 01:41:46;;;;;;;;;;;;;;;;;;5006974;28;873;-61
2021/03/07 01:44:12;;;;;;;;;;;;;;;;;;5006567;28;873;-60
2021/03/07 01:46:37;;;;;;;;;;;;;;;;;;5000842;28;1910;-61
2021/03/07 01:49:03;;;;;;;;;;;;;;;;;;4988158;28;1054;-60
2021/03/07 01:51:28;;;;;;;;;;;;;;;;;;4986820;28;812;-60
2021/03/07 01:53:54;;;;;;;;;;;;;;;;;;5008325;28;1008;-61
2021/03/07 01:56:20;;;;;;;;;;;;;;;;;;5028262;28;830;-61
2021/03/07 01:58:48;;;;;;;;;;;;;;;;;;5026722;28;823;-61
2021/03/07 02:01:13;;;;;;;;;;;;;;;;;;5026587;28;867;-61
2021/03/07 02:04:04;;;;;;;;;;;;;;;;;;5026809;28;1082;-61
2021/03/07 02:06:30;;;;;;;;;;;;;;;;;;5026201;28;2022;-60
2021/03/07 02:08:55;;;;;;;;;;;;;;;;;;5026332;28;932;-61
2021/03/07 02:11:20;;;;;;;;;;;;;;;;;;5025587;28;855;-60
2021/03/07 02:13:47;;;;;;;;;;;;;;;;;;5025864;28;835;-61
2021/03/07 02:16:17;;;;;;;;;;;;;;;;;;5007206;28;1365;-62
2021/03/07 02:18:43;;;;;;;;;;;;;;;;;;5006580;28;827;-61
2021/03/07 02:21:09;;;;;;;;;;;;;;;;;;5006358;28;851;-61
2021/03/07 02:23:39;;;;;;;;;;;;;;;;;;5006957;28;888;-61
2021/03/07 02:26:04;;;;;;;;;;;;;;;;;;5007002;28;1972;-60
2021/03/07 02:28:30;;;;;;;;;;;;;;;;;;5005964;28;895;-61
2021/03/07 02:30:55;;;;;;;;;;;;;;;;;;5005717;28;890;-61
2021/03/07 02:33:23;;;;;;;;;;;;;;;;;;5006071;28;894;-61
2021/03/07 02:35:53;;;;;;;;;;;;;;;;;;5006362;28;843;-61
2021/03/07 02:38:20;;;;;;;;;;;;;;;;;;5006223;28;883;-60
2021/03/07 02:40:48;;;;;;;;;;;;;;;;;;5006977;28;1366;-60
2021/03/07 02:43:15;;;;;;;;;;;;;;;;;;5010306;28;920;-61
2021/03/07 02:45:42;;;;;;;;;;;;;;;;;;5009762;28;1902;-61
2021/03/07 02:48:08;;;;;;;;;;;;;;;;;;4991463;28;1055;-61
2021/03/07 02:50:35;;;;;;;;;;;;;;;;;;4991134;28;855;-60
2021/03/07 02:53:02;;;;;;;;;;;;;;;;;;4997384;28;1088;-60
2021/03/07 02:55:29;;;;;;;;;;;;;;;;;;5029463;28;835;-62
2021/03/07 02:57:56;;;;;;;;;;;;;;;;;;5031676;28;835;-61
2021/03/07 03:00:21;;;;;;;;;;;;;;;;;;5028657;28;844;-60
2021/03/07 03:02:48;;;;;;;;;;;;;;;;;;5029605;28;869;-61
2021/03/07 03:05:14;;;;;;;;;;;;;;;;;;5029606;28;835;-60
2021/03/07 03:07:40;;;;;;;;;;;;;;;;;;5029548;28;879;-60
2021/03/07 03:10:07;;;;;;;;;;;;;;;;;;5011805;28;1673;-60
2021/03/07 03:12:35;;;;;;;;;;;;;;;;;;4990736;28;832;-60
2021/03/07 03:15:01;;;;;;;;;;;;;;;;;;4989706;28;872;-60
2021/03/07 03:17:27;;;;;;;;;;;;;;;;;;4990102;28;1144;-60
2021/03/07 03:19:53;;;;;;;;;;;;;;;;;;4989827;28;832;-61
2021/03/07 03:22:19;;;;;;;;;;;;;;;;;;4988973;28;879;-59
2021/03/07 03:24:45;;;;;;;;;;;;;;;;;;4991398;28;1118;-60
2021/03/07 03:27:11;;;;;;;;;;;;;;;;;;5010744;28;1934;-59
2021/03/07 03:29:38;;;;;;;;;;;;;;;;;;5008677;28;878;-60
2021/03/07 03:32:03;;;;;;;;;;;;;;;;;;5009612;28;919;-60
2021/03/07 03:34:29;;;;;;;;;;;;;;;;;;5008886;28;804;-60
2021/03/07 03:36:54;;;;;;;;;;;;;;;;;;5009050;28;875;-61
2021/03/07 03:39:20;;;;;;;;;;;;;;;;;;5009299;28;804;-60
2021/03/07 03:41:48;;;;;;;;;;;;;;;;;;4998123;28;1486;-59
2021/03/07 03:44:16;;;;;;;;;;;;;;;;;;4989509;28;947;-61
2021/03/07 03:46:43;;;;;;;;;;;;;;;;;;4989208;28;1993;-59
2021/03/07 03:49:15;;;;;;;;;;;;;;;;;;4988802;28;950;-58
2021/03/07 03:51:42;;;;;;;;;;;;;;;;;;4988517;28;824;-58
2021/03/07 03:54:08;;;;;;;;;;;;;;;;;;5014879;28;1123;-58
2021/03/07 03:56:34;;;;;;;;;;;;;;;;;;5029205;28;787;-58
2021/03/07 03:59:01;;;;;;;;;;;;;;;;;;5030688;28;843;-61
2021/03/07 04:01:26;;;;;;;;;;;;;;;;;;5028458;28;812;-58
2021/03/07 04:03:53;;;;;;;;;;;;;;;;;;5028533;28;883;-60
2021/03/07 04:06:28;;;;;;;;;;;;;;;;;;5021914;28;1986;-58
2021/03/07 04:08:53;;;;;;;;;;;;;;;;;;4989268;28;839;-58
2021/03/07 04:11:19;;;;;;;;;;;;;;;;;;4989036;28;859;-58
2021/03/07 04:13:45;;;;;;;;;;;;;;;;;;4989030;28;1006;-59
2021/03/07 04:16:11;;;;;;;;;;;;;;;;;;4988974;28;1085;-58
2021/03/07 04:18:37;;;;;;;;;;;;;;;;;;4988809;28;871;-58
2021/03/07 04:21:03;;;;;;;;;;;;;;;;;;4989296;28;931;-58
2021/03/07 04:23:28;;;;;;;;;;;;;;;;;;4988685;28;1184;-61
2021/03/07 04:25:53;;;;;;;;;;;;;;;;;;5000499;28;2000;-61
2021/03/07 04:28:19;;;;;;;;;;;;;;;;;;5007259;28;887;-60
2021/03/07 04:30:44;;;;;;;;;;;;;;;;;;5007000;28;863;-60
2021/03/07 04:33:10;;;;;;;;;;;;;;;;;;5007478;28;831;-62
2021/03/07 04:35:38;;;;;;;;;;;;;;;;;;5008183;28;865;-62
2021/03/07 04:38:04;;;;;;;;;;;;;;;;;;5008364;28;835;-61
2021/03/07 04:40:30;;;;;;;;;;;;;;;;;;5007581;28;852;-61
2021/03/07 04:42:57;;;;;;;;;;;;;;;;;;5007879;28;852;-61
2021/03/07 04:45:22;;;;;;;;;;;;;;;;;;5007115;28;1972;-61
2021/03/07 04:47:48;;;;;;;;;;;;;;;;;;5007675;28;835;-62
2021/03/07 04:50:14;;;;;;;;;;;;;;;;;;5007132;28;828;-61
2021/03/07 04:52:40;;;;;;;;;;;;;;;;;;5006083;28;1260;-60
2021/03/07 04:55:06;;;;;;;;;;;;;;;;;;5006459;28;1115;-63
2021/03/07 04:57:32;;;;;;;;;;;;;;;;;;5008152;28;1136;-60
2021/03/07 04:59:58;;;;;;;;;;;;;;;;;;5008954;28;824;-60
2021/03/07 05:02:23;;;;;;;;;;;;;;;;;;5006633;28;851;-61
2021/03/07 05:04:48;;;;;;;;;;;;;;;;;;5006685;28;887;-61
2021/03/07 05:07:14;;;;;;;;;;;;;;;;;;5006992;28;1890;-61
2021/03/07 05:09:39;;;;;;;;;;;;;;;;;;5007275;28;918;-62
2021/03/07 05:12:05;;;;;;;;;;;;;;;;;;5008156;28;827;-60
2021/03/07 05:14:30;;;;;;;;;;;;;;;;;;5007618;28;1312;-61
2021/03/07 05:16:56;;;;;;;;;;;;;;;;;;5007552;28;890;-61
2021/03/07 05:19:21;;;;;;;;;;;;;;;;;;5007330;28;799;-61
2021/03/07 05:21:46;;;;;;;;;;;;;;;;;;5005356;28;1614;-61
2021/03/07 05:24:12;;;;;;;;;;;;;;;;;;4988385;28;1086;-61
2021/03/07 05:26:38;;;;;;;;;;;;;;;;;;4987542;28;1973;-61
2021/03/07 05:29:03;;;;;;;;;;;;;;;;;;4988110;28;934;-61
2021/03/07 05:31:28;;;;;;;;;;;;;;;;;;5001285;28;1358;-61
2021/03/07 05:33:54;;;;;;;;;;;;;;;;;;5007261;28;939;-62
2021/03/07 05:36:19;;;;;;;;;;;;;;;;;;5007398;28;808;-61
2021/03/07 05:38:44;;;;;;;;;;;;;;;;;;5007100;28;868;-61
2021/03/07 05:41:13;;;;;;;;;;;;;;;;;;5006645;28;823;-58
2021/03/07 05:43:39;;;;;;;;;;;;;;;;;;5006243;28;897;-61
2021/03/07 05:46:05;;;;;;;;;;;;;;;;;;5007198;28;1977;-60
2021/03/07 05:48:30;;;;;;;;;;;;;;;;;;5006959;28;937;-60
2021/03/07 05:50:56;;;;;;;;;;;;;;;;;;5003490;28;1398;-61
2021/03/07 05:53:22;;;;;;;;;;;;;;;;;;5000466;28;1009;-61
2021/03/07 05:55:47;;;;;;;;;;;;;;;;;;5025351;28;894;-62
2021/03/07 05:58:13;;;;;;;;;;;;;;;;;;5026161;28;894;-61
2021/03/07 06:00:38;;;;;;;;;;;;;;;;;;5027943;28;956;-59
2021/03/07 06:03:04;;;;;;;;;;;;;;;;;;5026851;28;938;-60
2021/03/07 06:05:30;;;;;;;;;;;;;;;;;;5025684;28;1882;-61
2021/03/07 06:07:55;;;;;;;;;;;;;;;;;;5026014;28;902;-60
2021/03/07 06:10:22;;;;;;;;;;;;;;;;;;5025759;28;835;-61
2021/03/07 06:13:02;;;;;;;;;;;;;;;;;;5026437;28;820;-61
2021/03/07 06:15:27;;;;;;;;;;;;;;;;;;5032396;28;863;-61
2021/03/07 06:17:53;;;;;;;;;;;;;;;;;;5018052;28;1602;-61
2021/03/07 06:20:23;;;;;;;;;;;;;;;;;;5013243;28;820;-62
2021/03/07 06:22:56;;;;;;;;;;;;;;;;;;5015022;28;1443;-61
2021/03/07 06:25:22;;;;;;;;;;;;;;;;;;4994761;28;1164;-62
2021/03/07 06:27:47;;;;;;;;;;;;;;;;;;4992600;28;905;-61
2021/03/07 06:30:17;;;;;;;;;;;;;;;;;;4992971;28;832;-61
2021/03/07 06:32:43;;;;;;;;;;;;;;;;;;4997007;28;1809;-61
2021/03/07 06:35:10;;;;;;;;;;;;;;;;;;5013119;28;796;-60
2021/03/07 06:38:05;;;;;;;;;;;;;;;;;;4993706;28;870;-61
2021/03/07 06:40:31;;;;;;;;;;;;;;;;;;4992149;28;1797;-61
2021/03/07 06:42:58;;;;;;;;;;;;;;;;;;5012576;28;975;-61
2021/03/07 06:45:23;;;;;;;;;;;;;;;;;;5012279;28;1975;-59
2021/03/07 06:47:58;;;;;;;;;;;;;;;;;;5012627;28;875;-61
2021/03/07 06:50:24;;;;;;;;;;;;;;;;;;5012825;28;857;-61
2021/03/07 06:52:59;;;;;;;;;;;;;;;;;;5015048;28;1190;-61
2021/03/07 06:55:25;;;;;;;;;;;;;;;;;;5031412;28;891;-61
2021/03/07 06:57:51;;;;;;;;;;;;;;;;;;5031628;28;990;-60
2021/03/07 07:00:16;;;;;;;;;;;;;;;;;;5015709;28;1259;-60
2021/03/07 07:03:02;;;;;;;;;;;;;;;;;;4993594;28;1141;-61
2021/03/07 07:05:37;;;;;;;;;;;;;;;;;;4992728;28;1886;-62
2021/03/07 07:08:03;;;;;;;;;;;;;;;;;;4993508;28;891;-58
2021/03/07 07:10:28;;;;;;;;;;;;;;;;;;4992289;28;820;-59
2021/03/07 07:13:02;;;;;;;;;;;;;;;;;;5007011;28;1313;-58
2021/03/07 07:15:27;;;;;;;;;;;;;;;;;;5005443;28;1678;-58
2021/03/07 07:17:53;;;;;;;;;;;;;;;;;;5010140;28;844;-59
2021/03/07 07:20:18;;;;;;;;;;;;;;;;;;5011972;28;836;-58
2021/03/07 07:22:44;;;;;;;;;;;;;;;;;;4995158;28;851;-57
2021/03/07 07:25:09;;;;;;;;;;;;;;;;;;5007941;28;1527;-57
2021/03/07 07:27:35;;;;;;;;;;;;;;;;;;5012394;28;1889;-59
2021/03/07 07:30:00;;;;;;;;;;;;;;;;;;5013309;28;1090;-58
2021/03/07 07:32:40;;;;;;;;;;;;;;;;;;5007805;28;1544;-61
2021/03/07 07:35:23;;;;;;;;;;;;;;;;;;5007033;28;2585;-60
2021/03/07 07:38:01;;;;;;;;;;;;;;;;;;5001080;28;1166;-62
2021/03/07 07:40:34;;;;;;;;;;;;;;;;;;5009092;28;869;-63
2021/03/07 07:43:00;;;;;;;;;;;;;;;;;;5010097;28;1109;-62
2021/03/07 07:45:25;;;;;;;;;;;;;;;;;;5013349;28;1210;-61
2021/03/07 07:47:52;;;;;;;;;;;;;;;;;;5028299;28;918;-62
2021/03/07 07:50:30;;;;;;;;;;;;;;;;;;5013992;28;1504;-62
2021/03/07 07:52:59;;;;;;;;;;;;;;;;;;5011979;28;1241;-62
2021/03/07 07:55:43;;;;;;;;;;;;;;;;;;5016300;28;2354;-61
2021/03/07 07:58:09;;;;;;;;;;;;;;;;;;4998450;28;1018;-62
2021/03/07 08:00:50;;;;;;;;;;;;;;;;;;5009581;28;932;-61
2021/03/07 08:03:31;;;;;;;;;;;;;;;;;;5008349;28;1087;-62
2021/03/07 08:05:57;;;;;;;;;;;;;;;;;;5008294;28;1965;-58
2021/03/07 08:08:32;;;;;;;;;;;;;;;;;;5007805;28;1241;-61
2021/03/07 08:10:57;;;;;;;;;;;;;;;;;;5001238;28;1081;-61
2021/03/07 08:13:43;;;;;;;;;;;;;;;;;;4994869;28;1245;-61
2021/03/07 08:16:08;;;;;;;;;;;;;;;;;;5006882;28;1121;-61
2021/03/07 08:18:50;;;;;;;;;;;;;;;;;;5006161;28;1475;-60
2021/03/07 08:21:17;;;;;;;;;;;;;;;;;;5007934;28;896;-61
2021/03/07 08:23:56;;;;;;;;;;;;;;;;;;4997546;28;1063;-61
2021/03/07 08:26:22;;;;;;;;;;;;;;;;;;4988175;28;1973;-62
2021/03/07 08:28:48;;;;;;;;;;;;;;;;;;4999650;28;1798;-60
2021/03/07 08:31:16;;;;;;;;;;;;;;;;;;5007581;28;1498;-59
2021/03/07 08:33:42;;;;;;;;;;;;;;;;;;5007940;28;894;-60
2021/03/07 08:36:08;;;;;;;;;;;;;;;;;;4997496;28;1779;-59
2021/03/07 08:38:33;;;;;;;;;;;;;;;;;;4988761;28;797;-59
2021/03/07 08:40:59;;;;;;;;;;;;;;;;;;4987757;28;828;-57
2021/03/07 08:43:24;;;;;;;;;;;;;;;;;;4988307;28;844;-60
2021/03/07 08:46:02;;;;;;;;;;;;;;;;;;5007010;28;1889;-57
2021/03/07 08:48:28;;;;;;;;;;;;;;;;;;5007654;28;879;-57
2021/03/07 08:50:54;;;;;;;;;;;;;;;;;;5007188;28;1150;-58
2021/03/07 08:53:23;;;;;;;;;;;;;;;;;;5004771;28;1402;-58
2021/03/07 08:55:49;;;;;;;;;;;;;;;;;;5026601;28;842;-58
2021/03/07 08:58:14;;;;;;;;;;;;;;;;;;5026428;28;839;-58
2021/03/07 09:00:44;;;;;;;;;;;;;;;;;;5007246;28;1374;-59
2021/03/07 09:03:11;;;;;;;;;;;;;;;;;;5006918;28;1196;-58
2021/03/07 09:05:37;;;;;;;;;;;;;;;;;;5005166;28;2348;-60
2021/03/07 09:08:03;;;;;;;;;;;;;;;;;;5004763;28;1523;-58
2021/03/07 09:10:33;;;;;;;;;;;;;;;;;;5006087;28;1312;-58
2021/03/07 09:13:10;;;;;;;;;;;;;;;;;;5006708;28;1254;-58
2021/03/07 09:15:37;;;;;;;;;;;;;;;;;;5000596;28;1635;-58
2021/03/07 09:18:03;;;;;;;;;;;;;;;;;;4993966;28;1109;-60
2021/03/07 09:20:48;;;;;;;;;;;;;;;;;;5008889;28;1210;-61
2021/03/07 09:23:30;;;;;;;;;;;;;;;;;;4987282;28;871;-61
2021/03/07 09:25:57;;;;;;;;;;;;;;;;;;5021637;28;1894;-61
2021/03/07 09:28:41;;;;;;;;;;;;;;;;;;5004217;28;1579;-59
2021/03/07 09:31:08;;;;;;;;;;;;;;;;;;5006900;28;1089;-59
2021/03/07 09:33:33;;;;;;;;;;;;;;;;;;5005632;28;1599;-59
2021/03/07 09:36:06;;;;;;;;;;;;;;;;;;5006299;28;1437;-59
2021/03/07 09:38:43;;;;;;;;;;;;;;;;;;5005114;28;1152;-58
2021/03/07 09:41:09;;;;;;;;;;;;;;;;;;5007031;28;847;-58
2021/03/07 09:43:34;;;;;;;;;;;;;;;;;;5007763;28;891;-61
2021/03/07 09:46:00;;;;;;;;;;;;;;;;;;5006634;28;1969;-59
2021/03/07 09:48:30;;;;;;;;;;;;;;;;;;5002570;28;1515;-60
2021/03/07 09:50:56;;;;;;;;;;;;;;;;;;5006396;28;1194;-58
2021/03/07 09:53:22;;;;;;;;;;;;;;;;;;5003960;28;1392;-61
2021/03/07 09:55:47;;;;;;;;;;;;;;;;;;5002617;28;1405;-61
2021/03/07 09:58:13;;;;;;;;;;;;;;;;;;5005329;28;882;-61
2021/03/07 10:00:40;;;;;;;;;;;;;;;;;;5004548;28;856;-61
2021/03/07 10:03:25;;;;;;;;;;;;;;;;;;5004752;28;804;-61
2021/03/07 10:06:03;;;;;;;;;;;;;;;;;;5005694;28;1995;-59
2021/03/07 10:08:31;;;;;;;;;;;;;;;;;;5006099;28;895;-61
2021/03/07 10:11:13;;;;;;;;;;;;;;;;;;5005937;28;953;-61
2021/03/07 10:13:39;;;;;;;;;;;;;;;;;;5006201;28;875;-61
2021/03/07 10:16:08;;;;;;;;;;;;;;;;;;5006590;28;807;-61
2021/03/07 10:18:33;;;;;;;;;;;;;;;;;;5006696;28;876;-59
2021/03/07 10:20:59;;;;;;;;;;;;;;;;;;5007406;28;1633;-58
2021/03/07 10:23:25;;;;;;;;;;;;;;;;;;5025640;28;875;-60
2021/03/07 10:25:51;;;;;;;;;;;;;;;;;;5024559;28;1890;-61
2021/03/07 10:28:19;;;;;;;;;;;;;;;;;;5025830;28;816;-59
2021/03/07 10:30:45;;;;;;;;;;;;;;;;;;5025379;28;910;-60
2021/03/07 10:33:13;;;;;;;;;;;;;;;;;;5025751;28;832;-58
2021/03/07 10:35:39;;;;;;;;;;;;;;;;;;5017446;28;1798;-59
2021/03/07 10:38:05;;;;;;;;;;;;;;;;;;5006714;28;816;-59
2021/03/07 10:40:31;;;;;;;;;;;;;;;;;;5006161;28;928;-60
2021/03/07 10:43:03;;;;;;;;;;;;;;;;;;5006228;28;934;-61
2021/03/07 10:45:29;;;;;;;;;;;;;;;;;;5005795;28;808;-61
2021/03/07 10:48:10;;;;;;;;;;;;;;;;;;5002866;28;2001;-61
2021/03/07 10:50:37;;;;;;;;;;;;;;;;;;5006551;28;1195;-61
2021/03/07 10:53:03;;;;;;;;;;;;;;;;;;5038087;28;1088;-61
2021/03/07 10:55:29;;;;;;;;;;;;;;;;;;5005441;28;819;-61
2021/03/07 10:57:54;;;;;;;;;;;;;;;;;;5005778;28;816;-61
2021/03/07 11:00:20;;;;;;;;;;;;;;;;;;4998850;28;1562;-58
2021/03/07 11:02:46;;;;;;;;;;;;;;;;;;5005437;28;800;-61
2021/03/07 11:05:12;;;;;;;;;;;;;;;;;;5010228;28;886;-62
2021/03/07 11:07:37;;;;;;;;;;;;;;;;;;4992435;28;1894;-58
2021/03/07 11:10:04;;;;;;;;;;;;;;;;;;4991196;28;784;-60
2021/03/07 11:12:30;;;;;;;;;;;;;;;;;;4989928;28;930;-62
2021/03/07 11:14:55;;;;;;;;;;;;;;;;;;4989109;28;1490;-60
2021/03/07 11:17:21;;;;;;;;;;;;;;;;;;4989848;28;847;-61
2021/03/07 11:19:46;;;;;;;;;;;;;;;;;;4991591;28;1349;-60
2021/03/07 11:22:11;;;;;;;;;;;;;;;;;;5017358;28;1220;-61
2021/03/07 11:24:37;;;;;;;;;;;;;;;;;;5009467;28;827;-59
2021/03/07 11:27:02;;;;;;;;;;;;;;;;;;5010045;28;1971;-60
2021/03/07 11:29:28;;;;;;;;;;;;;;;;;;5008747;28;1346;-58
2021/03/07 11:31:53;;;;;;;;;;;;;;;;;;5010247;28;1507;-58
2021/03/07 11:34:18;;;;;;;;;;;;;;;;;;5008976;28;914;-58
2021/03/07 11:36:44;;;;;;;;;;;;;;;;;;5009045;28;1693;-59
2021/03/07 11:39:09;;;;;;;;;;;;;;;;;;5008715;28;901;-58
2021/03/07 11:41:34;;;;;;;;;;;;;;;;;;4991918;28;1522;-60
2021/03/07 11:44:00;;;;;;;;;;;;;;;;;;4988440;28;1164;-59
2021/03/07 11:46:25;;;;;;;;;;;;;;;;;;4988684;28;1981;-58
2021/03/07 11:48:51;;;;;;;;;;;;;;;;;;4988154;28;951;-59
2021/03/07 11:51:16;;;;;;;;;;;;;;;;;;5004354;28;1495;-60
2021/03/07 11:53:41;;;;;;;;;;;;;;;;;;5007071;28;1135;-58
2021/03/07 11:56:07;;;;;;;;;;;;;;;;;;5003701;28;1386;-59
2021/03/07 11:58:32;;;;;;;;;;;;;;;;;;5008399;28;921;-58
2021/03/07 12:00:57;;;;;;;;;;;;;;;;;;5008675;28;942;-59
2021/03/07 12:03:23;;;;;;;;;;;;;;;;;;5003717;28;1662;-61
2021/03/07 12:05:48;;;;;;;;;;;;;;;;;;5003970;28;1921;-60
2021/03/07 12:08:13;;;;;;;;;;;;;;;;;;5005976;28;1539;-60
2021/03/07 12:10:39;;;;;;;;;;;;;;;;;;5005304;28;1479;-59
2021/03/07 12:13:04;;;;;;;;;;;;;;;;;;5008113;28;887;-58
2021/03/07 12:15:30;;;;;;;;;;;;;;;;;;5002138;28;1607;-58
2021/03/07 12:17:55;;;;;;;;;;;;;;;;;;5001421;28;1393;-60
2021/03/07 12:20:20;;;;;;;;;;;;;;;;;;5007671;28;997;-59
2021/03/07 12:22:47;;;;;;;;;;;;;;;;;;5007025;28;1144;-60
2021/03/07 12:25:13;;;;;;;;;;;;;;;;;;5006693;28;883;-60
2021/03/07 12:27:38;;;;;;;;;;;;;;;;;;5003772;28;1957;-60
2021/03/07 12:30:04;;;;;;;;;;;;;;;;;;4995003;28;907;-60
2021/03/07 12:32:29;;;;;;;;;;;;;;;;;;5004829;28;1395;-61
2021/03/07 12:34:55;;;;;;;;;;;;;;;;;;5002313;28;1864;-59
2021/03/07 12:37:20;;;;;;;;;;;;;;;;;;5006492;28;1148;-58
2021/03/07 12:39:45;;;;;;;;;;;;;;;;;;5006479;28;1168;-58
2021/03/07 12:42:11;;;;;;;;;;;;;;;;;;5006268;28;1135;-58
2021/03/07 12:44:36;;;;;;;;;;;;;;;;;;5008339;28;860;-60
2021/03/07 12:47:02;;;;;;;;;;;;;;;;;;5008300;28;1972;-58
2021/03/07 12:49:27;;;;;;;;;;;;;;;;;;4991896;28;1777;-58
2021/03/07 12:51:53;;;;;;;;;;;;;;;;;;5004762;28;1149;-58
2021/03/07 12:54:18;;;;;;;;;;;;;;;;;;5021394;28;1078;-59
2021/03/07 12:56:43;;;;;;;;;;;;;;;;;;5001350;28;1719;-59
2021/03/07 12:59:09;;;;;;;;;;;;;;;;;;5000132;28;1641;-58
2021/03/07 13:01:34;;;;;;;;;;;;;;;;;;4998633;28;1719;-58
2021/03/07 13:03:59;;;;;;;;;;;;;;;;;;4994290;28;1725;-58
2021/03/07 13:06:25;;;;;;;;;;;;;;;;;;4995353;28;1989;-59
2021/03/07 13:08:50;;;;;;;;;;;;;;;;;;4998225;28;1697;-59
2021/03/07 13:11:16;;;;;;;;;;;;;;;;;;4997338;28;1665;-60
2021/03/07 13:13:41;;;;;;;;;;;;;;;;;;4997792;28;1804;-60
2021/03/07 13:16:07;;;;;;;;;;;;;;;;;;4999891;28;887;-58
2021/03/07 13:18:32;;;;;;;;;;;;;;;;;;5000741;28;1840;-59
2021/03/07 13:20:58;;;;;;;;;;;;;;;;;;4999634;28;1686;-58
2021/03/07 13:23:23;;;;;;;;;;;;;;;;;;4999448;28;1036;-59
2021/03/07 13:25:49;;;;;;;;;;;;;;;;;;4997302;28;1890;-59
2021/03/07 13:28:15;;;;;;;;;;;;;;;;;;4999911;28;1717;-60
2021/03/07 13:30:40;;;;;;;;;;;;;;;;;;4999665;28;1639;-60
2021/03/07 13:33:06;;;;;;;;;;;;;;;;;;4991157;28;982;-60
2021/03/07 13:35:34;;;;;;;;;;;;;;;;;;4993283;28;1727;-59
2021/03/07 13:37:59;;;;;;;;;;;;;;;;;;4995300;28;1883;-60
2021/03/07 13:40:25;;;;;;;;;;;;;;;;;;4997130;28;1844;-60
2021/03/07 13:42:50;;;;;;;;;;;;;;;;;;5002248;28;1692;-60
2021/03/07 13:45:16;;;;;;;;;;;;;;;;;;4997400;28;983;-60
2021/03/07 13:47:42;;;;;;;;;;;;;;;;;;4994762;28;1977;-60
2021/03/07 13:50:08;;;;;;;;;;;;;;;;;;4995954;28;1803;-59
2021/03/07 13:52:33;;;;;;;;;;;;;;;;;;5000623;28;958;-58
2021/03/07 13:54:58;;;;;;;;;;;;;;;;;;5005250;28;1879;-58
2021/03/07 13:57:24;;;;;;;;;;;;;;;;;;4994668;28;1737;-58
2021/03/07 13:59:49;;;;;;;;;;;;;;;;;;4995613;28;978;-58
2021/03/07 14:02:15;;;;;;;;;;;;;;;;;;4999982;28;1767;-58
2021/03/07 14:04:40;;;;;;;;;;;;;;;;;;4995005;28;1851;-58
2021/03/07 14:07:06;;;;;;;;;;;;;;;;;;4996239;28;1906;-59
2021/03/07 14:09:31;;;;;;;;;;;;;;;;;;4992831;28;1978;-59
2021/03/07 14:11:57;;;;;;;;;;;;;;;;;;4993462;28;1899;-59
2021/03/07 14:14:22;;;;;;;;;;;;;;;;;;5000006;28;1590;-58
2021/03/07 14:16:48;;;;;;;;;;;;;;;;;;4994876;28;1751;-58
2021/03/07 14:19:13;;;;;;;;;;;;;;;;;;5003612;28;907;-58
2021/03/07 14:21:38;;;;;;;;;;;;;;;;;;4998934;28;1950;-58
2021/03/07 14:24:04;;;;;;;;;;;;;;;;;;4994583;28;1672;-58
2021/03/07 14:26:29;;;;;;;;;;;;;;;;;;4997648;28;1898;-58
2021/03/07 14:28:55;;;;;;;;;;;;;;;;;;4996243;28;1817;-57
2021/03/07 14:31:20;;;;;;;;;;;;;;;;;;4992652;28;1645;-59
2021/03/07 14:33:46;;;;;;;;;;;;;;;;;;4994377;28;1705;-59
2021/03/07 14:36:11;;;;;;;;;;;;;;;;;;5027187;28;1867;-58
2021/03/07 14:38:37;;;;;;;;;;;;;;;;;;4998147;28;1627;-58
2021/03/07 14:41:02;;;;;;;;;;;;;;;;;;5002564;28;1738;-58
2021/03/07 14:43:28;;;;;;;;;;;;;;;;;;4996414;28;1141;-59
2021/03/07 14:45:53;;;;;;;;;;;;;;;;;;5007780;28;1960;-60
2021/03/07 14:48:18;;;;;;;;;;;;;;;;;;5009721;28;889;-59
2021/03/07 14:50:44;;;;;;;;;;;;;;;;;;5003712;28;1751;-57
2021/03/07 14:53:09;;;;;;;;;;;;;;;;;;5002191;28;1476;-58
2021/03/07 14:55:35;;;;;;;;;;;;;;;;;;5008806;28;1156;-57
2021/03/07 14:58:00;;;;;;;;;;;;;;;;;;5001027;28;1711;-59
2021/03/07 15:00:27;;;;;;;;;;;;;;;;;;4999031;28;871;-57
2021/03/07 15:02:52;;;;;;;;;;;;;;;;;;4996279;28;1124;-58
2021/03/07 15:05:17;;;;;;;;;;;;;;;;;;5009197;28;1035;-58
2021/03/07 15:07:43;;;;;;;;;;;;;;;;;;5009037;28;1907;-58
2021/03/07 15:10:10;;;;;;;;;;;;;;;;;;5009472;28;882;-57
2021/03/07 15:12:35;;;;;;;;;;;;;;;;;;5010186;28;1289;-57
2021/03/07 15:15:00;;;;;;;;;;;;;;;;;;5009476;28;800;-57
2021/03/07 15:17:26;;;;;;;;;;;;;;;;;;5009705;28;831;-57
2021/03/07 15:19:51;;;;;;;;;;;;;;;;;;5005531;28;1405;-58
2021/03/07 15:22:18;;;;;;;;;;;;;;;;;;4990055;28;1010;-57
2021/03/07 15:24:43;;;;;;;;;;;;;;;;;;4989214;28;933;-57
2021/03/07 15:27:09;;;;;;;;;;;;;;;;;;4988663;28;1961;-58
2021/03/07 15:29:34;;;;;;;;;;;;;;;;;;4990369;28;840;-58
2021/03/07 15:31:59;;;;;;;;;;;;;;;;;;4989718;28;926;-58
2021/03/07 15:34:25;;;;;;;;;;;;;;;;;;4995255;28;1084;-57
2021/03/07 15:36:51;;;;;;;;;;;;;;;;;;5009017;28;1646;-57
2021/03/07 15:39:16;;;;;;;;;;;;;;;;;;5007510;28;1598;-57
2021/03/07 15:41:41;;;;;;;;;;;;;;;;;;5008470;28;1152;-57
2021/03/07 15:44:07;;;;;;;;;;;;;;;;;;5008830;28;839;-58
2021/03/07 15:46:32;;;;;;;;;;;;;;;;;;5008088;28;2281;-58
2021/03/07 15:48:58;;;;;;;;;;;;;;;;;;5005526;28;1546;-57
2021/03/07 15:51:23;;;;;;;;;;;;;;;;;;5001838;28;1834;-57
2021/03/07 15:53:48;;;;;;;;;;;;;;;;;;5005790;28;1559;-57
2021/03/07 15:56:13;;;;;;;;;;;;;;;;;;5007276;28;1148;-57
2021/03/07 15:58:39;;;;;;;;;;;;;;;;;;5006179;28;1062;-58
2021/03/07 16:01:04;;;;;;;;;;;;;;;;;;5008175;28;882;-58
2021/03/07 16:03:30;;;;;;;;;;;;;;;;;;5007511;28;847;-58
2021/03/07 16:05:57;;;;;;;;;;;;;;;;;;5004088;28;1956;-58
2021/03/07 16:08:23;;;;;;;;;;;;;;;;;;5002454;28;817;-58
2021/03/07 16:10:48;;;;;;;;;;;;;;;;;;4994696;28;844;-58
2021/03/07 16:13:14;;;;;;;;;;;;;;;;;;4992159;28;1064;-58
2021/03/07 16:15:39;;;;;;;;;;;;;;;;;;5008193;28;867;-58
2021/03/07 16:18:05;;;;;;;;;;;;;;;;;;5008948;28;827;-58
2021/03/07 16:20:31;;;;;;;;;;;;;;;;;;4998347;28;1790;-58
2021/03/07 16:22:56;;;;;;;;;;;;;;;;;;4987951;28;1174;-59
2021/03/07 16:25:22;;;;;;;;;;;;;;;;;;5002759;28;828;-58
2021/03/07 16:27:47;;;;;;;;;;;;;;;;;;5004478;28;2000;-58
2021/03/07 16:30:13;;;;;;;;;;;;;;;;;;5005102;28;1433;-58
2021/03/07 16:32:38;;;;;;;;;;;;;;;;;;5000123;28;1524;-59
2021/03/07 16:35:04;;;;;;;;;;;;;;;;;;5001426;28;1749;-57
2021/03/07 16:37:29;;;;;;;;;;;;;;;;;;5005058;28;1337;-58
2021/03/07 16:39:54;;;;;;;;;;;;;;;;;;5006581;28;1466;-58
2021/03/07 16:42:20;;;;;;;;;;;;;;;;;;5005356;28;1254;-58
2021/03/07 16:44:45;;;;;;;;;;;;;;;;;;5006205;28;1213;-59
2021/03/07 16:47:11;;;;;;;;;;;;;;;;;;5006540;28;1906;-59
2021/03/07 16:49:36;;;;;;;;;;;;;;;;;;5005099;28;1435;-58
2021/03/07 16:52:02;;;;;;;;;;;;;;;;;;5006499;28;1234;-59
2021/03/07 16:54:27;;;;;;;;;;;;;;;;;;5007237;28;1242;-59
2021/03/07 16:56:53;;;;;;;;;;;;;;;;;;5006023;28;1281;-57
2021/03/07 16:59:18;;;;;;;;;;;;;;;;;;5006437;28;1160;-58
2021/03/07 17:01:43;;;;;;;;;;;;;;;;;;5000442;28;1566;-58
2021/03/07 17:04:09;;;;;;;;;;;;;;;;;;5000489;28;1519;-57
2021/03/07 17:06:35;;;;;;;;;;;;;;;;;;5000839;28;1890;-57
2021/03/07 17:09:00;;;;;;;;;;;;;;;;;;4995396;28;1563;-57